sensor_id;sensor_type;location;lat;lon;timestamp;pressure;altitude;pressure_sealevel;temperature;humidity
10606;BME280;5350;42.698;23.148;2023-05-08T00:00:08;93806.50;;;11.75;100.00
10606;BME280;5350;42.698;23.148;2023-05-08T00:02:35;93800.16;;;11.76;100.00
10606;BME280;5350;42.698;23.148;2023-05-08T00:05:02;93801.31;;;11.70;100.00
10606;BME280;5350;42.698;23.148;2023-05-08T00:07:28;93804.44;;;11.72;100.00
10606;BME280;5350;42.698;23.148;2023-05-08T00:09:56;93807.97;;;11.81;100.00
10606;BME280;5350;42.698;23.148;2023-05-08T00:12:23;93807.84;;;11.72;100.00
10606;BME280;5350;42.698;23.148;2023-05-08T00:14:50;93815.19;;;11.75;100.00
10606;BME280;5350;42.698;23.148;2023-05-08T00:17:17;93817.25;;;11.78;100.00
10606;BME280;5350;42.698;23.148;2023-05-08T00:19:43;93816.41;;;11.64;100.00
10606;BME280;5350;42.698;23.148;2023-05-08T00:22:10;93823.81;;;11.62;100.00
10606;BME280;5350;42.698;23.148;2023-05-08T00:24:37;93822.63;;;11.55;100.00
10606;BME280;5350;42.698;23.148;2023-05-08T00:27:05;93816.09;;;11.52;100.00
10606;BME280;5350;42.698;23.148;2023-05-08T00:29:32;93829.75;;;11.54;100.00
10606;BME280;5350;42.698;23.148;2023-05-08T00:31:59;93821.53;;;11.42;100.00
10606;BME280;5350;42.698;23.148;2023-05-08T00:34:26;93815.47;;;11.42;100.00
10606;BME280;5350;42.698;23.148;2023-05-08T00:36:52;93813.44;;;11.39;100.00
10606;BME280;5350;42.698;23.148;2023-05-08T00:39:21;93828.75;;;11.50;100.00
10606;BME280;5350;42.698;23.148;2023-05-08T00:41:48;93789.66;;;11.11;100.00
10606;BME280;5350;42.698;23.148;2023-05-08T00:44:16;93824.34;;;11.32;100.00
10606;BME280;5350;42.698;23.148;2023-05-08T00:46:43;93814.59;;;11.33;100.00
10606;BME280;5350;42.698;23.148;2023-05-08T00:49:11;93812.88;;;11.23;100.00
10606;BME280;5350;42.698;23.148;2023-05-08T00:51:39;93822.56;;;11.27;100.00
10606;BME280;5350;42.698;23.148;2023-05-08T00:54:06;93826.69;;;11.15;100.00
10606;BME280;5350;42.698;23.148;2023-05-08T00:56:35;93822.38;;;11.05;100.00
10606;BME280;5350;42.698;23.148;2023-05-08T00:59:02;93827.91;;;11.04;100.00
10606;BME280;5350;42.698;23.148;2023-05-08T01:01:32;93832.03;;;11.10;100.00
10606;BME280;5350;42.698;23.148;2023-05-08T01:03:59;93837.41;;;11.05;100.00
10606;BME280;5350;42.698;23.148;2023-05-08T01:06:26;93834.53;;;11.20;100.00
10606;BME280;5350;42.698;23.148;2023-05-08T01:08:53;93830.19;;;11.10;100.00
10606;BME280;5350;42.698;23.148;2023-05-08T01:11:23;93842.06;;;11.08;100.00
10606;BME280;5350;42.698;23.148;2023-05-08T01:14:00;93832.47;;;10.98;100.00
10606;BME280;5350;42.698;23.148;2023-05-08T01:16:40;93836.44;;;11.14;100.00
10606;BME280;5350;42.698;23.148;2023-05-08T01:19:22;93837.78;;;11.12;100.00
10606;BME280;5350;42.698;23.148;2023-05-08T01:21:59;93842.69;;;11.18;100.00
10606;BME280;5350;42.698;23.148;2023-05-08T01:24:46;93834.66;;;11.10;100.00
10606;BME280;5350;42.698;23.148;2023-05-08T01:33:36;93826.50;;;11.11;100.00
10606;BME280;5350;42.698;23.148;2023-05-08T01:36:17;93826.28;;;11.08;100.00
10606;BME280;5350;42.698;23.148;2023-05-08T01:38:52;93809.66;;;10.94;100.00
10606;BME280;5350;42.698;23.148;2023-05-08T01:41:25;93817.19;;;11.00;100.00
10606;BME280;5350;42.698;23.148;2023-05-08T01:44:00;93827.78;;;10.95;100.00
10606;BME280;5350;42.698;23.148;2023-05-08T01:46:31;93827.41;;;11.02;100.00
10606;BME280;5350;42.698;23.148;2023-05-08T01:49:10;93819.97;;;11.09;100.00
10606;BME280;5350;42.698;23.148;2023-05-08T01:51:41;93810.47;;;11.08;100.00
10606;BME280;5350;42.698;23.148;2023-05-08T01:54:11;93815.91;;;10.98;100.00
10606;BME280;5350;42.698;23.148;2023-05-08T01:56:42;93820.88;;;10.99;100.00
10606;BME280;5350;42.698;23.148;2023-05-08T01:59:12;93812.22;;;10.99;100.00
10606;BME280;5350;42.698;23.148;2023-05-08T02:01:40;93822.38;;;11.05;100.00
10606;BME280;5350;42.698;23.148;2023-05-08T02:04:10;93828.22;;;11.02;100.00
10606;BME280;5350;42.698;23.148;2023-05-08T02:06:38;93820.16;;;11.12;100.00
10606;BME280;5350;42.698;23.148;2023-05-08T02:09:07;93805.00;;;11.04;100.00
10606;BME280;5350;42.698;23.148;2023-05-08T02:11:35;93823.63;;;11.08;100.00
10606;BME280;5350;42.698;23.148;2023-05-08T02:14:03;93823.59;;;10.94;100.00
10606;BME280;5350;42.698;23.148;2023-05-08T02:16:31;93820.16;;;10.94;100.00
10606;BME280;5350;42.698;23.148;2023-05-08T02:18:59;93824.59;;;10.80;100.00
10606;BME280;5350;42.698;23.148;2023-05-08T02:21:29;93816.63;;;10.85;100.00
10606;BME280;5350;42.698;23.148;2023-05-08T02:23:57;93826.03;;;10.91;100.00
10606;BME280;5350;42.698;23.148;2023-05-08T02:26:26;93825.59;;;10.84;100.00
10606;BME280;5350;42.698;23.148;2023-05-08T02:28:54;93827.63;;;10.87;100.00
10606;BME280;5350;42.698;23.148;2023-05-08T02:31:21;93832.41;;;10.85;100.00
10606;BME280;5350;42.698;23.148;2023-05-08T02:33:50;93835.13;;;10.80;100.00
10606;BME280;5350;42.698;23.148;2023-05-08T02:36:19;93830.91;;;10.79;100.00
10606;BME280;5350;42.698;23.148;2023-05-08T02:38:50;93830.84;;;10.84;100.00
10606;BME280;5350;42.698;23.148;2023-05-08T02:41:19;93737.00;;;10.23;100.00
10606;BME280;5350;42.698;23.148;2023-05-08T02:43:47;93829.66;;;10.76;100.00
10606;BME280;5350;42.698;23.148;2023-05-08T02:46:17;93835.75;;;10.72;100.00
10606;BME280;5350;42.698;23.148;2023-05-08T02:48:50;93827.44;;;10.65;100.00
10606;BME280;5350;42.698;23.148;2023-05-08T02:51:24;93835.41;;;10.78;100.00
10606;BME280;5350;42.698;23.148;2023-05-08T02:53:57;93837.16;;;10.83;100.00
10606;BME280;5350;42.698;23.148;2023-05-08T02:56:34;93828.56;;;10.59;100.00
10606;BME280;5350;42.698;23.148;2023-05-08T02:59:13;93827.50;;;10.60;100.00
10606;BME280;5350;42.698;23.148;2023-05-08T03:01:47;93833.63;;;10.74;100.00
10606;BME280;5350;42.698;23.148;2023-05-08T03:04:21;93804.69;;;10.55;100.00
10606;BME280;5350;42.698;23.148;2023-05-08T03:06:51;93823.97;;;10.69;100.00
10606;BME280;5350;42.698;23.148;2023-05-08T03:09:23;93823.75;;;10.66;100.00
10606;BME280;5350;42.698;23.148;2023-05-08T03:11:56;93822.97;;;10.65;100.00
10606;BME280;5350;42.698;23.148;2023-05-08T03:14:26;93829.72;;;10.71;100.00
10606;BME280;5350;42.698;23.148;2023-05-08T03:16:54;93824.50;;;10.66;100.00
10606;BME280;5350;42.698;23.148;2023-05-08T03:19:26;93836.03;;;10.70;100.00
10606;BME280;5350;42.698;23.148;2023-05-08T03:21:54;93771.88;;;10.29;100.00
10606;BME280;5350;42.698;23.148;2023-05-08T03:24:24;93816.47;;;10.58;100.00
10606;BME280;5350;42.698;23.148;2023-05-08T03:26:55;93848.41;;;10.70;100.00
10606;BME280;5350;42.698;23.148;2023-05-08T03:29:22;93839.69;;;10.74;100.00
10606;BME280;5350;42.698;23.148;2023-05-08T03:31:50;93840.94;;;10.58;100.00
10606;BME280;5350;42.698;23.148;2023-05-08T03:34:19;93835.69;;;10.77;100.00
10606;BME280;5350;42.698;23.148;2023-05-08T03:36:47;93803.31;;;10.39;100.00
10606;BME280;5350;42.698;23.148;2023-05-08T03:39:13;93836.66;;;10.81;100.00
10606;BME280;5350;42.698;23.148;2023-05-08T03:41:42;93842.44;;;10.83;100.00
10606;BME280;5350;42.698;23.148;2023-05-08T03:44:10;93837.41;;;10.86;100.00
10606;BME280;5350;42.698;23.148;2023-05-08T03:46:38;93840.94;;;10.95;100.00
10606;BME280;5350;42.698;23.148;2023-05-08T03:49:05;93845.34;;;11.00;100.00
10606;BME280;5350;42.698;23.148;2023-05-08T03:51:35;93853.69;;;11.07;100.00
10606;BME280;5350;42.698;23.148;2023-05-08T03:54:04;93846.84;;;11.06;100.00
10606;BME280;5350;42.698;23.148;2023-05-08T03:56:31;93848.25;;;11.17;100.00
10606;BME280;5350;42.698;23.148;2023-05-08T03:59:08;93855.38;;;11.16;100.00
10606;BME280;5350;42.698;23.148;2023-05-08T04:01:37;93856.22;;;11.12;100.00
10606;BME280;5350;42.698;23.148;2023-05-08T04:04:08;93838.03;;;11.15;100.00
10606;BME280;5350;42.698;23.148;2023-05-08T04:06:39;93857.31;;;11.43;100.00
10606;BME280;5350;42.698;23.148;2023-05-08T04:09:16;93853.69;;;11.39;100.00
10606;BME280;5350;42.698;23.148;2023-05-08T04:11:51;93864.09;;;11.49;100.00
10606;BME280;5350;42.698;23.148;2023-05-08T04:14:33;93858.16;;;11.57;100.00
10606;BME280;5350;42.698;23.148;2023-05-08T04:17:04;93862.56;;;11.62;100.00
10606;BME280;5350;42.698;23.148;2023-05-08T04:19:35;93861.16;;;11.69;100.00
10606;BME280;5350;42.698;23.148;2023-05-08T04:22:05;93863.59;;;11.79;100.00
10606;BME280;5350;42.698;23.148;2023-05-08T04:24:38;93860.78;;;11.89;100.00
10606;BME280;5350;42.698;23.148;2023-05-08T04:27:08;93863.84;;;11.96;100.00
10606;BME280;5350;42.698;23.148;2023-05-08T04:29:37;93860.53;;;12.04;100.00
10606;BME280;5350;42.698;23.148;2023-05-08T04:32:04;93861.41;;;12.14;100.00
10606;BME280;5350;42.698;23.148;2023-05-08T04:34:31;93865.63;;;12.28;100.00
10606;BME280;5350;42.698;23.148;2023-05-08T04:36:58;93834.75;;;12.15;100.00
10606;BME280;5350;42.698;23.148;2023-05-08T04:39:25;93860.63;;;12.40;100.00
10606;BME280;5350;42.698;23.148;2023-05-08T04:41:52;93862.88;;;12.47;100.00
10606;BME280;5350;42.698;23.148;2023-05-08T04:44:20;93870.00;;;12.60;100.00
10606;BME280;5350;42.698;23.148;2023-05-08T04:46:48;93868.22;;;12.69;100.00
10606;BME280;5350;42.698;23.148;2023-05-08T04:49:15;93873.59;;;12.77;100.00
10606;BME280;5350;42.698;23.148;2023-05-08T04:51:42;93872.72;;;12.82;100.00
10606;BME280;5350;42.698;23.148;2023-05-08T04:54:08;93866.31;;;12.97;100.00
10606;BME280;5350;42.698;23.148;2023-05-08T04:56:35;93864.00;;;12.95;100.00
10606;BME280;5350;42.698;23.148;2023-05-08T04:59:02;93865.34;;;13.06;100.00
10606;BME280;5350;42.698;23.148;2023-05-08T05:01:29;93856.84;;;13.09;100.00
10606;BME280;5350;42.698;23.148;2023-05-08T05:03:57;93847.31;;;13.22;100.00
10606;BME280;5350;42.698;23.148;2023-05-08T05:06:23;93858.41;;;13.32;100.00
10606;BME280;5350;42.698;23.148;2023-05-08T05:08:51;93854.56;;;13.38;100.00
10606;BME280;5350;42.698;23.148;2023-05-08T05:11:18;93855.91;;;13.49;100.00
10606;BME280;5350;42.698;23.148;2023-05-08T05:13:45;93847.84;;;13.54;100.00
10606;BME280;5350;42.698;23.148;2023-05-08T05:16:12;93862.22;;;13.62;100.00
10606;BME280;5350;42.698;23.148;2023-05-08T05:18:39;93858.22;;;13.73;100.00
10606;BME280;5350;42.698;23.148;2023-05-08T05:21:07;93860.59;;;13.75;100.00
10606;BME280;5350;42.698;23.148;2023-05-08T05:23:33;93866.38;;;13.85;98.81
10606;BME280;5350;42.698;23.148;2023-05-08T05:26:00;93867.16;;;13.86;98.95
10606;BME280;5350;42.698;23.148;2023-05-08T05:28:27;93879.31;;;13.87;96.74
10606;BME280;5350;42.698;23.148;2023-05-08T05:30:54;93871.59;;;13.99;95.79
10606;BME280;5350;42.698;23.148;2023-05-08T05:33:20;93877.84;;;14.03;95.70
10606;BME280;5350;42.698;23.148;2023-05-08T05:35:47;93863.81;;;14.02;95.63
10606;BME280;5350;42.698;23.148;2023-05-08T05:38:15;93871.63;;;14.07;94.41
10606;BME280;5350;42.698;23.148;2023-05-08T05:40:42;93867.81;;;14.22;95.00
10606;BME280;5350;42.698;23.148;2023-05-08T05:43:09;93858.56;;;14.41;93.75
10606;BME280;5350;42.698;23.148;2023-05-08T05:45:35;93865.63;;;14.55;92.16
10606;BME280;5350;42.698;23.148;2023-05-08T05:48:03;93863.47;;;14.65;91.85
10606;BME280;5350;42.698;23.148;2023-05-08T05:50:30;93863.53;;;14.82;92.87
10606;BME280;5350;42.698;23.148;2023-05-08T05:52:57;93861.38;;;15.01;91.11
10606;BME280;5350;42.698;23.148;2023-05-08T05:55:25;93858.88;;;15.05;90.46
10606;BME280;5350;42.698;23.148;2023-05-08T05:57:51;93857.03;;;15.23;89.47
10606;BME280;5350;42.698;23.148;2023-05-08T06:00:19;93859.38;;;15.33;88.05
10606;BME280;5350;42.698;23.148;2023-05-08T06:02:46;93852.34;;;15.37;86.83
10606;BME280;5350;42.698;23.148;2023-05-08T06:05:13;93857.22;;;15.52;86.96
10606;BME280;5350;42.698;23.148;2023-05-08T06:07:40;93855.03;;;15.62;87.34
10606;BME280;5350;42.698;23.148;2023-05-08T06:10:07;93857.16;;;15.69;86.24
10606;BME280;5350;42.698;23.148;2023-05-08T06:12:35;93854.56;;;15.60;86.43
10606;BME280;5350;42.698;23.148;2023-05-08T06:15:02;93849.53;;;15.76;86.03
10606;BME280;5350;42.698;23.148;2023-05-08T06:17:29;93849.03;;;15.82;85.83
10606;BME280;5350;42.698;23.148;2023-05-08T06:19:56;93856.34;;;15.94;85.30
10606;BME280;5350;42.698;23.148;2023-05-08T06:22:23;93867.72;;;16.03;84.64
10606;BME280;5350;42.698;23.148;2023-05-08T06:24:50;93857.38;;;16.19;82.52
10606;BME280;5350;42.698;23.148;2023-05-08T06:27:18;93858.41;;;16.35;80.45
10606;BME280;5350;42.698;23.148;2023-05-08T06:29:47;93864.44;;;16.44;80.24
10606;BME280;5350;42.698;23.148;2023-05-08T06:32:15;93863.22;;;16.50;80.18
10606;BME280;5350;42.698;23.148;2023-05-08T06:34:42;93858.84;;;16.54;79.79
10606;BME280;5350;42.698;23.148;2023-05-08T06:37:09;93855.63;;;16.69;78.08
10606;BME280;5350;42.698;23.148;2023-05-08T06:39:35;93867.56;;;16.84;76.27
10606;BME280;5350;42.698;23.148;2023-05-08T06:42:02;93867.44;;;16.80;78.20
10606;BME280;5350;42.698;23.148;2023-05-08T06:44:30;93863.03;;;16.84;77.37
10606;BME280;5350;42.698;23.148;2023-05-08T06:46:58;93871.28;;;16.91;78.11
10606;BME280;5350;42.698;23.148;2023-05-08T06:49:25;93871.50;;;17.07;78.21
10606;BME280;5350;42.698;23.148;2023-05-08T06:51:52;93879.75;;;17.14;75.25
10606;BME280;5350;42.698;23.148;2023-05-08T06:54:19;93877.47;;;17.04;78.68
10606;BME280;5350;42.698;23.148;2023-05-08T06:56:45;93875.41;;;17.09;74.90
10606;BME280;5350;42.698;23.148;2023-05-08T06:59:12;93878.78;;;17.18;74.50
10606;BME280;5350;42.698;23.148;2023-05-08T07:01:39;93884.56;;;17.41;75.54
10606;BME280;5350;42.698;23.148;2023-05-08T07:04:07;93884.53;;;17.49;75.67
10606;BME280;5350;42.698;23.148;2023-05-08T07:06:33;93842.91;;;17.45;77.24
10606;BME280;5350;42.698;23.148;2023-05-08T07:09:00;93880.47;;;17.85;77.33
10606;BME280;5350;42.698;23.148;2023-05-08T07:11:28;93879.16;;;17.91;74.55
10606;BME280;5350;42.698;23.148;2023-05-08T07:13:55;93875.97;;;17.97;73.84
10606;BME280;5350;42.698;23.148;2023-05-08T07:16:22;93875.44;;;18.04;73.43
10606;BME280;5350;42.698;23.148;2023-05-08T07:18:48;93879.34;;;18.18;71.35
10606;BME280;5350;42.698;23.148;2023-05-08T07:21:16;93882.69;;;18.27;69.89
10606;BME280;5350;42.698;23.148;2023-05-08T07:23:44;93876.59;;;18.27;71.86
10606;BME280;5350;42.698;23.148;2023-05-08T07:26:12;93882.38;;;18.29;70.88
10606;BME280;5350;42.698;23.148;2023-05-08T07:28:38;93873.59;;;18.16;72.02
10606;BME280;5350;42.698;23.148;2023-05-08T07:31:05;93883.03;;;18.38;71.59
10606;BME280;5350;42.698;23.148;2023-05-08T07:33:32;93882.69;;;18.27;73.16
10606;BME280;5350;42.698;23.148;2023-05-08T07:35:59;93884.06;;;18.33;75.16
10606;BME280;5350;42.698;23.148;2023-05-08T07:38:27;93886.75;;;18.46;74.37
10606;BME280;5350;42.698;23.148;2023-05-08T07:40:54;93893.56;;;18.34;72.63
10606;BME280;5350;42.698;23.148;2023-05-08T07:43:21;93888.81;;;18.40;74.38
10606;BME280;5350;42.698;23.148;2023-05-08T07:45:48;93889.78;;;18.56;74.33
10606;BME280;5350;42.698;23.148;2023-05-08T07:48:15;93893.88;;;18.66;70.46
10606;BME280;5350;42.698;23.148;2023-05-08T07:50:42;93888.88;;;18.76;69.87
10606;BME280;5350;42.698;23.148;2023-05-08T07:53:09;93893.22;;;18.81;67.43
10606;BME280;5350;42.698;23.148;2023-05-08T07:55:37;93897.44;;;18.70;71.11
10606;BME280;5350;42.698;23.148;2023-05-08T07:58:03;93889.13;;;18.83;70.81
10606;BME280;5350;42.698;23.148;2023-05-08T08:00:31;93887.00;;;19.01;70.82
10606;BME280;5350;42.698;23.148;2023-05-08T08:02:57;93892.84;;;19.31;68.10
10606;BME280;5350;42.698;23.148;2023-05-08T08:05:24;93891.63;;;19.40;66.65
10606;BME280;5350;42.698;23.148;2023-05-08T08:07:51;93894.06;;;19.45;68.04
10606;BME280;5350;42.698;23.148;2023-05-08T08:10:17;93890.66;;;19.72;65.60
10606;BME280;5350;42.698;23.148;2023-05-08T08:12:45;93890.81;;;19.91;66.78
10606;BME280;5350;42.698;23.148;2023-05-08T08:15:12;93888.13;;;20.19;67.60
10606;BME280;5350;42.698;23.148;2023-05-08T08:17:39;93878.78;;;20.41;65.12
10606;BME280;5350;42.698;23.148;2023-05-08T08:20:06;93884.16;;;20.56;64.35
10606;BME280;5350;42.698;23.148;2023-05-08T08:22:33;93869.81;;;20.80;63.43
10606;BME280;5350;42.698;23.148;2023-05-08T08:25:03;93849.47;;;20.44;62.14
10606;BME280;5350;42.698;23.148;2023-05-08T08:27:30;93881.47;;;20.72;60.90
10606;BME280;5350;42.698;23.148;2023-05-08T08:29:58;93871.31;;;20.62;62.95
10606;BME280;5350;42.698;23.148;2023-05-08T08:32:25;93872.34;;;20.73;63.41
10606;BME280;5350;42.698;23.148;2023-05-08T08:34:51;93862.75;;;20.72;62.14
10606;BME280;5350;42.698;23.148;2023-05-08T08:37:18;93865.50;;;20.91;62.59
10606;BME280;5350;42.698;23.148;2023-05-08T08:39:45;93859.47;;;21.10;61.96
10606;BME280;5350;42.698;23.148;2023-05-08T08:42:12;93855.59;;;21.07;63.06
10606;BME280;5350;42.698;23.148;2023-05-08T08:44:39;93855.25;;;20.93;63.98
10606;BME280;5350;42.698;23.148;2023-05-08T08:47:09;93847.00;;;20.67;66.17
10606;BME280;5350;42.698;23.148;2023-05-08T08:49:41;93826.38;;;20.36;66.91
10606;BME280;5350;42.698;23.148;2023-05-08T08:52:18;93842.69;;;20.47;67.63
10606;BME280;5350;42.698;23.148;2023-05-08T08:54:54;93824.25;;;20.42;64.53
10606;BME280;5350;42.698;23.148;2023-05-08T08:57:22;93838.81;;;20.60;64.86
10606;BME280;5350;42.698;23.148;2023-05-08T08:59:50;93825.63;;;20.67;67.56
10606;BME280;5350;42.698;23.148;2023-05-08T09:02:21;93831.22;;;20.62;67.61
10606;BME280;5350;42.698;23.148;2023-05-08T09:04:49;93810.63;;;20.47;64.93
10606;BME280;5350;42.698;23.148;2023-05-08T09:07:16;93790.09;;;20.51;65.14
10606;BME280;5350;42.698;23.148;2023-05-08T09:09:44;93780.91;;;20.33;65.25
10606;BME280;5350;42.698;23.148;2023-05-08T09:12:13;93790.69;;;20.44;64.08
10606;BME280;5350;42.698;23.148;2023-05-08T09:14:40;93793.53;;;20.67;63.32
10606;BME280;5350;42.698;23.148;2023-05-08T09:17:06;93803.22;;;20.91;60.16
10606;BME280;5350;42.698;23.148;2023-05-08T09:19:36;93812.03;;;21.07;59.35
10606;BME280;5350;42.698;23.148;2023-05-08T09:22:03;93820.19;;;21.14;60.20
10606;BME280;5350;42.698;23.148;2023-05-08T09:24:53;93826.75;;;21.16;60.12
10606;BME280;5350;42.698;23.148;2023-05-08T09:27:20;93832.22;;;21.04;61.00
10606;BME280;5350;42.698;23.148;2023-05-08T09:29:58;93822.91;;;20.98;61.82
10606;BME280;5350;42.698;23.148;2023-05-08T09:32:25;93824.97;;;20.89;63.22
10606;BME280;5350;42.698;23.148;2023-05-08T09:34:53;93818.06;;;20.88;64.33
10606;BME280;5350;42.698;23.148;2023-05-08T09:37:20;93830.31;;;20.73;63.30
10606;BME280;5350;42.698;23.148;2023-05-08T09:39:46;93828.38;;;20.70;66.26
10606;BME280;5350;42.698;23.148;2023-05-08T09:42:14;93822.97;;;20.86;66.09
10606;BME280;5350;42.698;23.148;2023-05-08T09:44:45;93815.19;;;20.97;65.25
10606;BME280;5350;42.698;23.148;2023-05-08T09:47:13;93820.91;;;21.11;66.42
10606;BME280;5350;42.698;23.148;2023-05-08T09:49:56;93823.25;;;21.31;64.83
10606;BME280;5350;42.698;23.148;2023-05-08T09:52:23;93826.94;;;21.62;63.96
10606;BME280;5350;42.698;23.148;2023-05-08T09:54:56;93822.63;;;21.76;64.68
10606;BME280;5350;42.698;23.148;2023-05-08T09:57:23;93827.91;;;21.73;60.24
10606;BME280;5350;42.698;23.148;2023-05-08T09:59:50;93819.09;;;21.72;61.72
10606;BME280;5350;42.698;23.148;2023-05-08T10:02:16;93823.69;;;21.72;62.87
10606;BME280;5350;42.698;23.148;2023-05-08T10:04:45;93817.28;;;21.76;61.22
10606;BME280;5350;42.698;23.148;2023-05-08T10:07:13;93811.97;;;21.99;60.32
10606;BME280;5350;42.698;23.148;2023-05-08T10:09:56;93812.44;;;22.23;59.49
10606;BME280;5350;42.698;23.148;2023-05-08T10:12:23;93813.78;;;21.91;59.61
10606;BME280;5350;42.698;23.148;2023-05-08T10:14:50;93814.66;;;21.99;60.09
10606;BME280;5350;42.698;23.148;2023-05-08T10:17:22;93801.28;;;21.80;59.40
10606;BME280;5350;42.698;23.148;2023-05-08T10:19:55;93801.94;;;21.73;61.99
10606;BME280;5350;42.698;23.148;2023-05-08T10:22:26;93796.50;;;21.70;59.73
10606;BME280;5350;42.698;23.148;2023-05-08T10:24:56;93790.75;;;21.48;61.52
10606;BME280;5350;42.698;23.148;2023-05-08T10:27:30;93791.00;;;21.63;61.59
10606;BME280;5350;42.698;23.148;2023-05-08T10:30:00;93791.28;;;21.77;61.86
10606;BME280;5350;42.698;23.148;2023-05-08T10:32:33;93791.34;;;21.99;60.45
10606;BME280;5350;42.698;23.148;2023-05-08T10:35:05;93794.94;;;22.07;60.10
10606;BME280;5350;42.698;23.148;2023-05-08T10:37:36;93797.66;;;21.88;59.09
10606;BME280;5350;42.698;23.148;2023-05-08T10:40:04;93793.97;;;21.58;60.61
10606;BME280;5350;42.698;23.148;2023-05-08T10:42:33;93782.06;;;21.93;60.25
10606;BME280;5350;42.698;23.148;2023-05-08T10:45:01;93785.09;;;22.37;58.87
10606;BME280;5350;42.698;23.148;2023-05-08T10:47:35;93783.75;;;22.69;62.50
10606;BME280;5350;42.698;23.148;2023-05-08T10:50:16;93760.75;;;22.94;49.05
10606;BME280;5350;42.698;23.148;2023-05-08T10:52:52;93752.84;;;23.35;46.65
10606;BME280;5350;42.698;23.148;2023-05-08T10:55:27;93745.78;;;23.53;47.80
10606;BME280;5350;42.698;23.148;2023-05-08T10:58:02;93749.59;;;23.52;49.29
10606;BME280;5350;42.698;23.148;2023-05-08T11:00:31;93744.97;;;23.49;50.58
10606;BME280;5350;42.698;23.148;2023-05-08T11:03:05;93733.59;;;23.59;49.53
10606;BME280;5350;42.698;23.148;2023-05-08T11:05:44;93729.88;;;24.07;49.04
10606;BME280;5350;42.698;23.148;2023-05-08T11:08:16;93719.84;;;24.51;50.46
10606;BME280;5350;42.698;23.148;2023-05-08T11:10:50;93710.59;;;25.00;46.90
10606;BME280;5350;42.698;23.148;2023-05-08T11:13:18;93722.41;;;25.53;45.18
10606;BME280;5350;42.698;23.148;2023-05-08T11:15:50;93710.53;;;25.79;42.19
10606;BME280;5350;42.698;23.148;2023-05-08T11:18:17;93700.88;;;25.67;44.87
10606;BME280;5350;42.698;23.148;2023-05-08T11:20:54;93706.66;;;25.73;43.65
10606;BME280;5350;42.698;23.148;2023-05-08T11:23:23;93717.38;;;25.52;43.88
10606;BME280;5350;42.698;23.148;2023-05-08T11:25:58;93684.25;;;24.69;46.51
10606;BME280;5350;42.698;23.148;2023-05-08T11:28:26;93696.06;;;24.53;47.28
10606;BME280;5350;42.698;23.148;2023-05-08T11:30:53;93699.81;;;24.38;47.59
10606;BME280;5350;42.698;23.148;2023-05-08T11:33:20;93697.03;;;24.28;47.20
10606;BME280;5350;42.698;23.148;2023-05-08T11:35:52;93697.00;;;24.79;44.76
10606;BME280;5350;42.698;23.148;2023-05-08T11:38:23;93684.94;;;25.23;46.45
10606;BME280;5350;42.698;23.148;2023-05-08T11:40:56;93685.44;;;25.47;45.00
10606;BME280;5350;42.698;23.148;2023-05-08T11:43:25;93684.69;;;25.53;44.17
10606;BME280;5350;42.698;23.148;2023-05-08T11:45:52;93687.38;;;25.60;43.68
10606;BME280;5350;42.698;23.148;2023-05-08T11:48:20;93670.34;;;25.28;42.95
10606;BME280;5350;42.698;23.148;2023-05-08T11:50:46;93677.25;;;25.32;43.72
10606;BME280;5350;42.698;23.148;2023-05-08T11:53:13;93676.50;;;25.32;43.06
10606;BME280;5350;42.698;23.148;2023-05-08T11:55:41;93672.56;;;25.08;43.74
10606;BME280;5350;42.698;23.148;2023-05-08T11:58:11;93660.91;;;24.80;43.66
10606;BME280;5350;42.698;23.148;2023-05-08T12:00:39;93673.88;;;24.64;43.57
10606;BME280;5350;42.698;23.148;2023-05-08T12:03:11;93627.78;;;24.07;44.85
10606;BME280;5350;42.698;23.148;2023-05-08T12:05:37;93670.06;;;24.17;45.16
10606;BME280;5350;42.698;23.148;2023-05-08T12:08:05;93672.19;;;24.01;45.25
10606;BME280;5350;42.698;23.148;2023-05-08T12:10:38;93676.03;;;24.00;46.44
10606;BME280;5350;42.698;23.148;2023-05-08T12:13:16;93674.78;;;23.87;46.16
10606;BME280;5350;42.698;23.148;2023-05-08T12:15:43;93663.53;;;24.18;45.34
10606;BME280;5350;42.698;23.148;2023-05-08T12:18:10;93669.72;;;24.22;44.56
10606;BME280;5350;42.698;23.148;2023-05-08T12:20:37;93661.25;;;24.17;45.44
10606;BME280;5350;42.698;23.148;2023-05-08T12:23:04;93661.38;;;24.34;45.46
10606;BME280;5350;42.698;23.148;2023-05-08T12:25:31;93661.09;;;24.53;44.91
10606;BME280;5350;42.698;23.148;2023-05-08T12:27:58;93649.00;;;24.81;44.60
10606;BME280;5350;42.698;23.148;2023-05-08T12:30:26;93653.13;;;24.68;43.67
10606;BME280;5350;42.698;23.148;2023-05-08T12:32:53;93649.63;;;24.60;44.84
10606;BME280;5350;42.698;23.148;2023-05-08T12:35:20;93647.75;;;24.71;44.79
10606;BME280;5350;42.698;23.148;2023-05-08T12:37:49;93651.50;;;24.56;45.07
10606;BME280;5350;42.698;23.148;2023-05-08T12:40:26;93650.34;;;24.03;46.41
10606;BME280;5350;42.698;23.148;2023-05-08T12:42:53;93652.44;;;23.76;47.89
10606;BME280;5350;42.698;23.148;2023-05-08T12:45:21;93649.53;;;23.55;44.95
10606;BME280;5350;42.698;23.148;2023-05-08T12:47:51;93651.09;;;23.23;46.78
10606;BME280;5350;42.698;23.148;2023-05-08T12:50:19;93613.16;;;22.91;46.83
10606;BME280;5350;42.698;23.148;2023-05-08T12:52:47;93648.22;;;23.05;48.90
10606;BME280;5350;42.698;23.148;2023-05-08T12:55:21;93633.09;;;23.27;48.06
10606;BME280;5350;42.698;23.148;2023-05-08T12:57:49;93634.50;;;23.14;48.82
10606;BME280;5350;42.698;23.148;2023-05-08T13:00:17;93622.72;;;23.22;50.53
10606;BME280;5350;42.698;23.148;2023-05-08T13:02:52;93625.41;;;23.22;49.08
10606;BME280;5350;42.698;23.148;2023-05-08T13:05:20;93629.59;;;23.19;49.91
10606;BME280;5350;42.698;23.148;2023-05-08T13:07:47;93641.56;;;22.95;51.40
10606;BME280;5350;42.698;23.148;2023-05-08T13:10:14;93635.91;;;22.71;51.78